createdAt,value
2019-02-05T00:02:58.612Z,8.47
2019-02-05T00:07:06.685Z,11.07
2019-02-05T00:11:14.897Z,7.00
2019-02-05T00:15:23.141Z,8.70
2019-02-05T00:19:31.545Z,7.97
2019-02-05T00:23:39.760Z,9.13
2019-02-05T00:27:48.033Z,7.87
2019-02-05T00:31:56.274Z,11.10
2019-02-05T00:36:04.504Z,8.87
2019-02-05T00:40:12.767Z,7.23
2019-02-05T00:44:20.994Z,9.77
2019-02-05T00:48:29.243Z,7.20
2019-02-05T00:52:37.462Z,6.13
2019-02-05T00:56:45.681Z,10.10
2019-02-05T01:00:53.929Z,8.13
2019-02-05T01:05:02.162Z,8.07
2019-02-05T01:09:10.352Z,7.47
2019-02-05T01:13:18.586Z,8.50
2019-02-05T01:17:26.844Z,11.03
2019-02-05T01:21:35.080Z,8.53
2019-02-05T01:25:43.299Z,8.87
2019-02-05T01:29:51.565Z,11.67
2019-02-05T01:33:59.802Z,8.20
2019-02-05T01:38:08.077Z,11.70
2019-02-05T01:42:16.360Z,9.60
2019-02-05T01:46:24.590Z,9.63
2019-02-05T01:50:32.821Z,7.47
2019-02-05T01:54:41.085Z,10.80
2019-02-05T01:58:49.318Z,15.10
2019-02-05T02:02:57.537Z,10.20
2019-02-05T02:07:05.800Z,12.68
2019-02-05T02:11:14.068Z,8.60
2019-02-05T02:15:22.338Z,9.93
2019-02-05T02:19:30.578Z,10.00
2019-02-05T02:23:38.795Z,9.27
2019-02-05T02:27:47.433Z,10.27
2019-02-05T02:31:55.654Z,8.70
2019-02-05T02:36:03.923Z,7.30
2019-02-05T02:40:12.190Z,10.87
2019-02-05T02:44:20.464Z,11.37
2019-02-05T02:48:28.711Z,10.20
2019-02-05T02:52:36.937Z,12.43
2019-02-05T02:56:45.213Z,10.40
2019-02-05T03:00:53.471Z,14.17
2019-02-05T03:05:01.737Z,9.10
2019-02-05T03:09:10.378Z,12.07
2019-02-05T03:13:18.640Z,11.97
2019-02-05T03:17:26.908Z,13.70
2019-02-05T03:21:35.153Z,16.77
2019-02-05T03:25:43.409Z,12.97
2019-02-05T03:29:51.693Z,12.80
2019-02-05T03:33:59.888Z,11.40
2019-02-05T03:38:08.143Z,11.37
2019-02-05T03:42:16.364Z,12.20
2019-02-05T03:46:24.649Z,15.63
2019-02-05T03:50:34.588Z,10.43
2019-02-05T03:55:57.978Z,14.93
2019-02-05T04:00:33.261Z,12.97
2019-02-05T04:06:03.954Z,17.63
2019-02-05T04:10:59.635Z,13.23
2019-02-05T04:15:32.310Z,12.43
2019-02-05T04:19:53.210Z,12.53
2019-02-05T04:26:15.969Z,19.87
2019-02-05T04:30:49.368Z,14.70
2019-02-05T04:35:23.509Z,17.93
2019-02-05T04:39:44.038Z,15.77
2019-02-05T04:44:05.948Z,12.97
2019-02-05T04:48:28.055Z,14.70
2019-02-05T04:54:50.664Z,16.10
2019-02-05T04:59:11.820Z,21.15
2019-02-05T05:03:33.900Z,13.50
2019-02-05T05:08:54.056Z,14.70
2019-02-05T05:13:02.330Z,14.67
2019-02-05T05:17:10.668Z,19.20
2019-02-05T05:21:19.270Z,17.80
2019-02-05T05:25:27.593Z,15.43
2019-02-05T05:29:35.855Z,17.77
2019-02-05T05:33:44.149Z,14.27
2019-02-05T05:37:52.405Z,20.77
2019-02-05T05:42:00.653Z,17.80
2019-02-05T05:46:08.913Z,22.47
2019-02-05T05:50:17.117Z,20.10
2019-02-05T05:54:25.382Z,20.10
2019-02-05T05:58:33.640Z,17.43
2019-02-05T06:02:41.872Z,22.03
2019-02-05T06:06:50.177Z,21.60
2019-02-05T06:10:58.390Z,19.10
2019-02-05T06:15:07.172Z,22.50
2019-02-05T06:19:15.393Z,23.30
2019-02-05T06:23:23.798Z,29.27
2019-02-05T06:27:32.098Z,25.83
2019-02-05T06:31:40.351Z,18.00
2019-02-05T06:35:48.609Z,19.80
2019-02-05T06:39:56.819Z,23.30
2019-02-05T06:44:05.128Z,21.17
2019-02-05T06:48:13.425Z,23.33
2019-02-05T06:52:21.697Z,19.73
2019-02-05T06:56:29.969Z,18.92
2019-02-05T07:00:38.278Z,21.50
2019-02-05T07:04:46.481Z,20.67
2019-02-05T07:08:54.758Z,18.70
2019-02-05T07:13:03.119Z,21.87
2019-02-05T07:17:11.349Z,23.13
2019-02-05T07:21:19.625Z,18.87
2019-02-05T07:25:27.909Z,21.63
2019-02-05T07:29:36.136Z,23.25
2019-02-05T07:33:44.519Z,24.33
2019-02-05T07:37:52.805Z,28.47
2019-02-05T07:42:01.099Z,23.87
2019-02-05T07:46:09.465Z,22.83
2019-02-05T07:50:20.263Z,24.23
2019-02-05T07:54:28.509Z,23.00
2019-02-05T07:58:36.746Z,23.33
2019-02-05T08:02:45.007Z,28.13
2019-02-05T08:06:53.273Z,30.67
2019-02-05T08:11:01.606Z,28.60
2019-02-05T08:15:11.625Z,27.03
2019-02-05T08:19:19.926Z,28.60
2019-02-05T08:23:28.205Z,27.50
2019-02-05T08:27:37.228Z,27.93
2019-02-05T08:31:44.790Z,28.70
2019-02-05T08:35:53.080Z,30.33
2019-02-05T08:40:01.351Z,29.77
2019-02-05T08:44:09.652Z,30.73
2019-02-05T08:48:18.006Z,23.37
2019-02-05T08:52:26.322Z,29.93
2019-02-05T08:56:34.665Z,30.32
2019-02-05T09:00:43.112Z,29.50
2019-02-05T09:04:51.273Z,32.00
2019-02-05T09:08:59.601Z,30.03
2019-02-05T09:13:07.872Z,26.17
2019-02-05T09:17:16.167Z,28.07
2019-02-05T09:21:24.497Z,37.07
2019-02-05T09:25:32.773Z,33.00
2019-02-05T09:29:41.039Z,39.60
2019-02-05T09:33:49.299Z,30.33
2019-02-05T09:37:57.996Z,29.53
2019-02-05T09:42:05.893Z,30.40
2019-02-05T09:46:13.914Z,30.77
2019-02-05T09:50:22.203Z,31.93
2019-02-05T09:54:30.470Z,26.90
2019-02-05T09:58:38.722Z,30.13
2019-02-05T10:02:47.035Z,29.70
2019-02-05T10:06:55.299Z,38.13
2019-02-05T10:11:03.574Z,40.03
2019-02-05T10:15:14.975Z,41.70
2019-02-05T10:19:23.259Z,35.83
2019-02-05T10:23:31.545Z,36.27
2019-02-05T10:27:39.863Z,32.80
2019-02-05T10:31:48.132Z,34.60
2019-02-05T10:35:56.465Z,44.20
2019-02-05T10:40:05.381Z,34.23
2019-02-05T10:44:13.682Z,31.03
2019-02-05T10:48:21.969Z,36.57
2019-02-05T10:52:30.296Z,37.30
2019-02-05T10:56:39.167Z,32.98
2019-02-05T11:00:47.447Z,38.13
2019-02-05T11:04:55.801Z,39.70
2019-02-05T11:09:05.053Z,43.57
2019-02-05T11:13:13.422Z,33.40
2019-02-05T11:17:21.754Z,41.13
2019-02-05T11:21:29.940Z,28.13
2019-02-05T11:25:38.219Z,31.07
2019-02-05T11:29:46.504Z,30.70
2019-02-05T11:33:54.790Z,31.93
2019-02-05T11:38:02.831Z,33.43
2019-02-05T11:42:11.139Z,36.23
2019-02-05T11:46:19.471Z,38.60
2019-02-05T11:50:27.758Z,26.70
2019-02-05T11:54:35.766Z,28.60
2019-02-05T11:58:44.023Z,24.43
2019-02-05T12:02:52.309Z,29.83
2019-02-05T12:07:00.569Z,25.60
2019-02-05T12:11:08.948Z,26.70
2019-02-05T12:15:17.262Z,31.60
2019-02-05T12:19:25.491Z,24.47
2019-02-05T12:23:33.893Z,30.27
2019-02-05T12:27:42.139Z,28.85
2019-02-05T12:31:50.393Z,30.63
2019-02-05T12:35:58.662Z,27.17
2019-02-05T12:40:08.435Z,28.60
2019-02-05T12:44:16.721Z,26.43
2019-02-05T12:48:25.007Z,25.40
2019-02-05T12:52:33.284Z,24.73
2019-02-05T12:56:41.620Z,21.30
2019-02-05T13:00:57.323Z,20.37
2019-02-05T13:05:00.365Z,23.43
2019-02-05T13:09:09.146Z,20.80
2019-02-05T13:13:18.363Z,19.43
2019-02-05T13:17:25.646Z,25.03
2019-02-05T13:21:33.891Z,25.77
2019-02-05T13:25:42.194Z,30.47
2019-02-05T13:29:50.467Z,24.30
2019-02-05T13:33:58.738Z,24.33
2019-02-05T13:38:07.011Z,24.87
2019-02-05T13:42:15.279Z,30.57
2019-02-05T13:46:23.693Z,22.30
2019-02-05T13:50:33.674Z,24.10
2019-02-05T13:54:40.506Z,23.73
2019-02-05T13:58:48.789Z,21.20
2019-02-05T14:02:57.069Z,24.80
2019-02-05T14:07:05.344Z,23.07
2019-02-05T14:11:13.630Z,28.07
2019-02-05T14:15:23.156Z,22.67
2019-02-05T14:19:31.443Z,25.70
2019-02-05T14:23:39.708Z,20.80
2019-02-05T14:27:47.985Z,23.70
2019-02-05T14:31:56.231Z,23.07
2019-02-05T14:36:04.565Z,29.70
2019-02-05T14:40:14.804Z,24.33
2019-02-05T14:44:23.084Z,30.63
2019-02-05T14:48:31.434Z,25.20
2019-02-05T14:52:39.698Z,27.53
2019-02-05T14:56:47.990Z,34.00
2019-02-05T15:00:56.257Z,26.07
2019-02-05T15:05:05.019Z,28.00
2019-02-05T15:09:13.285Z,25.57
2019-02-05T15:13:21.521Z,27.83
2019-02-05T15:17:29.765Z,26.67
2019-02-05T15:21:38.039Z,26.00
2019-02-05T15:25:46.341Z,28.00
2019-02-05T15:29:54.598Z,32.83
2019-02-05T15:34:05.596Z,21.37
2019-02-05T15:38:13.859Z,24.70
2019-02-05T15:42:22.148Z,25.73
2019-02-05T15:46:30.457Z,24.33
2019-02-05T15:50:38.821Z,29.87
2019-02-05T15:54:47.127Z,33.07
2019-02-05T15:58:55.407Z,24.97
2019-02-05T16:03:03.799Z,26.53
2019-02-05T16:07:12.088Z,28.70
2019-02-05T16:11:20.400Z,36.13
2019-02-05T16:15:28.650Z,33.57
2019-02-05T16:19:36.928Z,29.90
2019-02-05T16:23:45.170Z,25.07
2019-02-05T16:27:53.432Z,23.47
2019-02-05T16:32:01.704Z,28.43
2019-02-05T16:36:10.007Z,29.17
2019-02-05T16:40:21.347Z,24.13
2019-02-05T16:44:29.653Z,29.17
2019-02-05T16:48:37.958Z,28.10
2019-02-05T16:52:46.257Z,24.77
2019-02-05T16:56:54.593Z,29.00
2019-02-05T17:01:02.891Z,26.93
2019-02-05T17:05:11.285Z,22.30
2019-02-05T17:09:19.525Z,28.83
2019-02-05T17:13:27.777Z,29.77
2019-02-05T17:17:36.050Z,32.93
2019-02-05T17:21:44.277Z,30.20
2019-02-05T17:25:52.535Z,29.43
2019-02-05T17:30:00.760Z,33.73
2019-02-05T17:34:09.004Z,36.47
2019-02-05T17:38:17.261Z,28.33
2019-02-05T17:42:25.506Z,24.53
2019-02-05T17:46:33.782Z,30.85
2019-02-05T17:50:42.042Z,29.53
2019-02-05T17:54:50.425Z,30.13
2019-02-05T17:58:58.728Z,28.27
2019-02-05T18:03:07.013Z,25.77
2019-02-05T18:07:15.341Z,27.27
2019-02-05T18:11:23.378Z,26.87
2019-02-05T18:15:32.438Z,24.33
2019-02-05T18:19:40.677Z,23.20
2019-02-05T18:23:48.979Z,21.27
2019-02-05T18:27:57.301Z,21.03
2019-02-05T18:32:05.558Z,23.77
2019-02-05T18:36:13.815Z,20.53
2019-02-05T18:40:22.749Z,22.17
2019-02-05T18:44:31.029Z,25.03
2019-02-05T18:48:39.313Z,18.60
2019-02-05T18:52:47.610Z,24.00
2019-02-05T18:56:55.874Z,23.90
2019-02-05T19:01:04.426Z,24.77
2019-02-05T19:05:12.772Z,24.60
2019-02-05T19:09:21.050Z,31.23
2019-02-05T19:13:29.334Z,27.57
2019-02-05T19:17:37.689Z,27.20
2019-02-05T19:21:45.982Z,20.67
2019-02-05T19:26:01.438Z,25.57
2019-02-05T19:30:10.710Z,25.80
2019-02-05T19:34:18.973Z,21.83
2019-02-05T19:38:27.248Z,26.30
2019-02-05T19:42:35.539Z,25.30
2019-02-05T19:46:49.313Z,25.70
2019-02-05T19:50:57.528Z,24.37
2019-02-05T19:55:05.986Z,28.20
2019-02-05T19:59:14.287Z,28.07
2019-02-05T20:03:22.553Z,26.53
2019-02-05T20:07:30.817Z,25.90
2019-02-05T20:11:39.084Z,28.57
2019-02-05T20:15:47.395Z,27.60
2019-02-05T20:19:55.678Z,30.30
2019-02-05T20:24:04.078Z,20.83
2019-02-05T20:28:12.322Z,22.30
2019-02-05T20:32:20.703Z,21.37
2019-02-05T20:36:28.937Z,23.23
2019-02-05T20:40:37.030Z,18.50
2019-02-05T20:44:45.277Z,24.27
2019-02-05T20:48:53.569Z,18.83
2019-02-05T20:53:13.052Z,22.23
2019-02-05T20:57:10.126Z,21.37
2019-02-05T21:01:18.433Z,16.83
2019-02-05T21:05:26.703Z,22.33
2019-02-05T21:09:34.996Z,22.30
2019-02-05T21:13:43.266Z,18.47
2019-02-05T21:17:51.632Z,22.10
2019-02-05T21:21:59.925Z,19.53
2019-02-05T21:26:08.210Z,19.70
2019-02-05T21:30:18.186Z,18.77
2019-02-05T21:34:26.444Z,17.90
2019-02-05T21:38:34.722Z,23.90
2019-02-05T21:42:42.758Z,22.40
2019-02-05T21:46:51.092Z,19.30
2019-02-05T21:50:59.364Z,19.43
2019-02-05T21:55:08.320Z,18.23
2019-02-05T21:59:16.609Z,23.13
2019-02-05T22:03:24.909Z,20.13
2019-02-05T22:07:33.169Z,20.30
2019-02-05T22:11:41.486Z,17.20
2019-02-05T22:15:49.741Z,21.53
2019-02-05T22:19:58.006Z,14.90
2019-02-05T22:24:06.283Z,17.50
2019-02-05T22:28:14.552Z,19.07
2019-02-05T22:32:22.869Z,22.17
2019-02-05T22:36:31.181Z,16.00
2019-02-05T22:40:39.425Z,22.63
2019-02-05T22:44:47.693Z,18.23
2019-02-05T22:48:55.933Z,17.93
2019-02-05T22:53:04.285Z,21.40
2019-02-05T22:57:12.608Z,19.90
2019-02-05T23:01:31.105Z,24.30
2019-02-05T23:05:56.009Z,19.00
2019-02-05T23:11:21.446Z,19.53
2019-02-05T23:15:29.774Z,17.60
2019-02-05T23:19:38.061Z,18.75
2019-02-05T23:23:46.350Z,18.30
2019-02-05T23:27:54.694Z,17.30
2019-02-05T23:32:03.004Z,22.90
2019-02-05T23:36:11.291Z,19.93
2019-02-05T23:40:19.561Z,15.20
2019-02-05T23:44:27.843Z,14.83
2019-02-05T23:48:36.113Z,17.17
2019-02-05T23:52:44.458Z,13.47
2019-02-05T23:56:52.693Z,14.00
